Time;durP1;ratioP1;P1;durP2;ratioP2;P2;SDS_P1;SDS_P2;PMS_P1;PMS_P2;Temp;Humidity;BMP_temperature;BMP_pressure;BME280_temperature;BME280_humidity;BME280_pressure;Samples;Min_cycle;Max_cycle;Signal;HPM_P1;HPM_P2
2022/04/26 03:36:23;;;;;;;12.82;8.00;;;9.60;66.90;;;;;;5078167;28;20086;-62
2022/04/26 03:38:48;;;;;;;13.70;7.38;;;9.60;66.60;;;;;;5077360;28;20021;-62
2022/04/26 03:41:14;;;;;;;12.20;8.90;;;9.60;66.60;;;;;;5078033;28;20029;-62
2022/04/26 03:43:40;;;;;;;14.50;7.03;;;9.50;67.50;;;;;;5077955;28;20052;-62
2022/04/26 03:46:06;;;;;;;12.13;8.65;;;9.50;68.10;;;;;;5078017;28;20028;-62
2022/04/26 03:48:32;;;;;;;11.27;8.00;;;9.50;68.80;;;;;;5077802;28;20027;-62
2022/04/26 03:50:59;;;;;;;9.82;6.97;;;9.50;66.40;;;;;;5077729;28;20078;-62
2022/04/26 03:53:25;;;;;;;10.98;7.53;;;9.50;68.10;;;;;;5077937;28;20028;-62
2022/04/26 03:55:51;;;;;;;11.70;7.68;;;9.50;68.10;;;;;;5077471;28;20052;-62
2022/04/26 03:58:17;;;;;;;10.88;7.18;;;9.50;67.80;;;;;;5077629;28;20096;-62
2022/04/26 04:00:43;;;;;;;11.38;7.57;;;9.50;68.20;;;;;;5077786;28;20024;-62
2022/04/26 04:03:09;;;;;;;16.42;7.95;;;9.50;67.50;;;;;;5077337;28;20021;-62
2022/04/26 04:05:34;;;;;;;10.30;7.88;;;9.50;68.30;;;;;;5077505;28;20036;-62
2022/04/26 04:08:01;;;;;;;12.50;7.95;;;9.50;67.00;;;;;;5077623;28;20027;-62
2022/04/26 04:10:26;;;;;;;11.60;7.97;;;9.50;67.80;;;;;;5077455;28;20392;-62
2022/04/26 04:12:52;;;;;;;12.63;8.68;;;9.50;66.30;;;;;;5077439;28;20024;-62
2022/04/26 04:15:18;;;;;;;12.10;7.82;;;9.50;66.50;;;;;;5077430;28;20035;-62
2022/04/26 04:17:44;;;;;;;13.93;8.80;;;9.40;67.40;;;;;;5077662;28;20040;-62
2022/04/26 04:20:11;;;;;;;12.50;8.73;;;9.40;67.00;;;;;;5077379;28;20103;-62
2022/04/26 04:22:38;;;;;;;12.60;7.70;;;9.40;67.40;;;;;;5077411;28;20028;-62
2022/04/26 04:25:04;;;;;;;13.15;8.07;;;9.40;68.10;;;;;;5077508;28;20435;-62
2022/04/26 04:27:31;;;;;;;12.32;8.20;;;9.40;68.00;;;;;;5077558;28;20051;-62
2022/04/26 04:30:02;;;;;;;12.65;7.85;;;9.50;66.20;;;;;;5077311;28;20449;-62
2022/04/26 04:32:31;;;;;;;14.63;8.68;;;9.40;68.60;;;;;;5077572;28;20028;-62
2022/04/26 04:34:56;;;;;;;13.68;8.57;;;9.40;68.50;;;;;;5077161;28;20021;-62
2022/04/26 04:37:22;;;;;;;16.25;8.05;;;9.40;66.90;;;;;;5077254;28;20029;-62
2022/04/26 04:39:51;;;;;;;13.05;7.63;;;9.40;67.40;;;;;;5077257;28;20382;-62
2022/04/26 04:42:17;;;;;;;12.13;8.52;;;9.40;68.50;;;;;;5077347;28;20029;-62
2022/04/26 04:44:43;;;;;;;14.07;8.30;;;9.40;69.40;;;;;;5077033;28;20390;-62
2022/04/26 04:47:09;;;;;;;14.82;8.75;;;9.40;67.40;;;;;;5077291;28;20090;-62
2022/04/26 04:49:35;;;;;;;14.27;9.15;;;9.40;68.70;;;;;;5077114;28;20021;-62
2022/04/26 04:52:01;;;;;;;11.77;7.68;;;9.40;67.80;;;;;;5080113;28;20066;-62
2022/04/26 04:54:27;;;;;;;13.65;8.35;;;9.40;67.00;;;;;;5081129;28;20426;-62
2022/04/26 04:56:52;;;;;;;12.90;8.85;;;9.40;67.30;;;;;;5081225;28;20040;-62
2022/04/26 04:59:18;;;;;;;12.00;8.13;;;9.40;67.60;;;;;;5081119;28;20081;-62
2022/04/26 05:01:44;;;;;;;14.40;8.48;;;9.30;67.30;;;;;;5080514;28;20103;-62
2022/04/26 05:04:09;;;;;;;10.80;7.60;;;9.30;66.60;;;;;;5080760;28;20554;-62
2022/04/26 05:06:35;;;;;;;12.75;7.85;;;9.30;68.70;;;;;;5080898;28;20491;-62
2022/04/26 05:09:01;;;;;;;15.30;8.68;;;9.30;67.10;;;;;;5080985;28;20028;-62
2022/04/26 05:11:27;;;;;;;11.80;8.07;;;9.40;66.50;;;;;;5079292;28;20571;-62
2022/04/26 05:13:52;;;;;;;13.65;8.38;;;9.30;67.90;;;;;;5080590;28;20031;-62
2022/04/26 05:16:18;;;;;;;12.52;8.00;;;9.30;68.30;;;;;;5080786;28;20488;-62
2022/04/26 05:18:44;;;;;;;14.27;8.65;;;9.40;66.70;;;;;;5080797;28;20020;-61
2022/04/26 05:21:13;;;;;;;12.35;7.82;;;9.30;68.10;;;;;;5080593;28;20052;-61
2022/04/26 05:26:23;;;;;;;12.35;7.63;;;9.30;68.80;;;;;;5080693;28;20028;-61
2022/04/26 05:28:49;;;;;;;13.93;8.73;;;9.30;69.30;;;;;;5080336;28;20028;-62
2022/04/26 05:31:15;;;;;;;14.02;8.98;;;9.30;68.40;;;;;;5080569;28;20013;-62
2022/04/26 05:33:41;;;;;;;11.60;8.20;;;9.30;67.40;;;;;;5080437;28;20545;-62
2022/04/26 05:36:07;;;;;;;13.25;9.23;;;9.30;68.70;;;;;;5080537;28;20052;-62
2022/04/26 05:38:34;;;;;;;12.07;7.65;;;9.30;66.70;;;;;;5080701;28;20381;-62
2022/04/26 05:41:00;;;;;;;12.40;8.63;;;9.30;68.50;;;;;;5080216;28;20033;-62
2022/04/26 05:43:26;;;;;;;13.57;8.57;;;9.40;69.10;;;;;;5080022;28;20021;-62
2022/04/26 05:45:52;;;;;;;11.95;8.30;;;9.40;67.90;;;;;;5078795;28;20124;-62
2022/04/26 05:48:18;;;;;;;14.38;8.35;;;9.40;69.50;;;;;;5080523;28;20025;-62
2022/04/26 05:50:44;;;;;;;14.05;8.25;;;9.40;68.30;;;;;;5079746;28;20025;-62
2022/04/26 05:53:10;;;;;;;13.52;8.95;;;9.40;68.90;;;;;;5079745;28;20025;-62
2022/04/26 05:55:36;;;;;;;14.45;8.10;;;9.40;68.40;;;;;;5079690;28;20059;-62
2022/04/26 05:58:02;;;;;;;13.27;9.18;;;9.50;69.30;;;;;;5079826;28;20021;-62
2022/04/26 06:00:29;;;;;;;12.23;8.43;;;9.50;69.60;;;;;;5079798;28;20040;-62
2022/04/26 06:02:54;;;;;;;13.57;8.75;;;9.60;70.00;;;;;;5079038;28;20020;-62
2022/04/26 06:05:21;;;;;;;15.73;9.00;;;9.60;69.50;;;;;;5079954;28;20070;-62
2022/04/26 06:07:46;;;;;;;13.18;8.82;;;9.60;68.20;;;;;;5079945;28;20017;-62
2022/04/26 06:10:12;;;;;;;14.10;8.98;;;9.70;68.00;;;;;;5079576;28;20082;-62
2022/04/26 06:12:40;;;;;;;14.27;9.45;;;9.70;68.40;;;;;;5079640;28;20119;-62
2022/04/26 06:15:06;;;;;;;14.32;8.98;;;9.70;67.80;;;;;;5079503;28;20170;-62
2022/04/26 06:17:32;;;;;;;15.95;9.18;;;9.70;68.70;;;;;;5079675;28;20021;-62
2022/04/26 06:19:58;;;;;;;13.77;8.80;;;9.80;69.00;;;;;;5079626;28;20021;-62
2022/04/26 06:22:24;;;;;;;13.13;8.60;;;9.80;69.20;;;;;;5079537;28;20021;-62
2022/04/26 06:24:52;;;;;;;16.42;8.85;;;9.80;68.70;;;;;;5077521;28;20028;-62
2022/04/26 06:27:18;;;;;;;16.88;9.50;;;9.90;67.90;;;;;;5079307;28;20021;-62
2022/04/26 06:29:44;;;;;;;13.82;9.10;;;10.00;67.90;;;;;;5079408;28;20024;-62
2022/04/26 06:32:10;;;;;;;14.45;9.00;;;10.00;68.20;;;;;;5079049;28;20400;-62
2022/04/26 06:34:36;;;;;;;13.32;9.52;;;10.00;67.70;;;;;;5079584;28;20028;-62
2022/04/26 06:37:01;;;;;;;12.02;8.18;;;10.00;69.20;;;;;;5079308;28;20025;-62
2022/04/26 06:39:28;;;;;;;15.57;9.23;;;10.10;69.20;;;;;;5078100;28;20029;-62
2022/04/26 06:41:54;;;;;;;14.45;9.07;;;10.10;69.00;;;;;;5078897;28;20048;-62
2022/04/26 06:44:20;;;;;;;17.48;9.65;;;10.10;68.90;;;;;;5078899;28;20033;-62
2022/04/26 06:46:46;;;;;;;15.32;9.07;;;10.20;69.20;;;;;;5078612;28;20030;-62
2022/04/26 06:49:11;;;;;;;13.88;8.75;;;10.20;68.60;;;;;;5078662;28;20059;-62
2022/04/26 06:51:44;;;;;;;14.82;8.80;;;10.20;69.70;;;;;;5078993;28;20025;-62
2022/04/26 06:54:11;;;;;;;14.18;9.85;;;10.20;68.40;;;;;;5078386;28;20101;-62
2022/04/26 06:56:36;;;;;;;13.60;9.40;;;10.30;68.20;;;;;;5078396;28;20040;-62
2022/04/26 06:59:03;;;;;;;16.25;9.45;;;10.30;67.80;;;;;;5078784;28;20033;-62
2022/04/26 07:01:29;;;;;;;15.50;8.60;;;10.40;68.30;;;;;;5078684;28;20085;-62
2022/04/26 07:03:54;;;;;;;14.65;9.25;;;10.40;68.50;;;;;;5078163;28;20506;-62
2022/04/26 07:06:20;;;;;;;14.60;9.35;;;10.50;68.50;;;;;;5077173;28;20074;-62
2022/04/26 07:08:46;;;;;;;14.60;9.25;;;10.50;68.40;;;;;;5078525;28;20035;-62
2022/04/26 07:11:15;;;;;;;12.48;9.23;;;10.50;69.50;;;;;;5078209;28;20477;-63
2022/04/26 07:13:41;;;;;;;16.45;8.73;;;10.60;69.60;;;;;;5077775;28;20130;-62
2022/04/26 07:16:07;;;;;;;14.98;9.27;;;10.70;70.20;;;;;;5078403;28;20024;-62
2022/04/26 07:18:34;;;;;;;15.27;9.30;;;10.70;69.40;;;;;;5078364;28;20460;-62
2022/04/26 07:21:00;;;;;;;13.20;9.48;;;10.80;68.70;;;;;;5078114;28;20017;-62
2022/04/26 07:23:25;;;;;;;15.23;9.68;;;10.80;68.30;;;;;;5078013;28;20032;-62
2022/04/26 07:25:52;;;;;;;15.80;9.40;;;10.90;68.70;;;;;;5078180;28;20029;-62
2022/04/26 07:28:19;;;;;;;16.10;10.05;;;10.90;69.10;;;;;;5077992;28;20085;-62
2022/04/26 07:30:45;;;;;;;13.10;9.30;;;11.00;68.90;;;;;;5078134;28;20028;-62
2022/04/26 07:35:56;;;;;;;13.40;9.15;;;11.20;68.60;;;;;;5078171;28;20112;-62
2022/04/26 07:38:22;;;;;;;14.73;9.63;;;11.20;67.70;;;;;;5077810;28;20052;-62
2022/04/26 07:40:48;;;;;;;13.85;9.90;;;11.30;68.10;;;;;;5078216;28;20526;-63
2022/04/26 07:43:14;;;;;;;14.13;9.63;;;11.30;67.50;;;;;;5077835;28;20028;-62
2022/04/26 07:45:41;;;;;;;15.80;9.63;;;11.40;67.90;;;;;;5077829;28;20027;-62
2022/04/26 07:48:08;;;;;;;12.45;9.10;;;11.40;67.80;;;;;;5077632;28;20059;-62
2022/04/26 07:50:36;;;;;;;15.65;9.27;;;11.50;68.30;;;;;;5077849;28;20024;-62
2022/04/26 07:53:03;;;;;;;14.18;9.73;;;11.60;67.30;;;;;;5077603;28;20031;-62
2022/04/26 07:55:30;;;;;;;14.32;8.70;;;11.60;66.70;;;;;;5077474;28;20052;-62
2022/04/26 07:58:00;;;;;;;14.25;8.75;;;11.70;67.20;;;;;;5077660;28;20024;-63
2022/04/26 08:00:26;;;;;;;14.10;8.20;;;11.70;67.00;;;;;;5076046;28;20040;-63
2022/04/26 08:02:52;;;;;;;12.52;8.00;;;11.80;67.00;;;;;;5077537;28;20119;-63
2022/04/26 08:05:18;;;;;;;12.00;9.35;;;11.90;67.30;;;;;;5077458;28;20029;-63
2022/04/26 08:07:44;;;;;;;14.93;8.40;;;12.00;66.60;;;;;;5077564;28;20019;-62
2022/04/26 08:10:13;;;;;;;12.20;7.72;;;12.10;67.10;;;;;;5077242;28;20032;-63
2022/04/26 08:12:39;;;;;;;12.38;8.02;;;12.20;66.60;;;;;;5077305;28;20017;-62
2022/04/26 08:15:06;;;;;;;14.07;7.78;;;12.30;65.80;;;;;;5077416;28;20025;-63
2022/04/26 08:17:32;;;;;;;12.65;7.50;;;12.30;66.00;;;;;;5077256;28;20376;-62
2022/04/26 08:19:58;;;;;;;12.75;7.65;;;12.40;65.90;;;;;;5077664;28;20032;-63
2022/04/26 08:22:24;;;;;;;13.30;7.50;;;12.40;65.40;;;;;;5077158;28;20462;-63
2022/04/26 08:27:34;;;;;;;12.25;7.72;;;12.60;64.50;;;;;;5077230;28;20180;-62
2022/04/26 08:30:05;;;;;;;12.27;7.63;;;12.60;64.10;;;;;;5077030;28;20503;-62
2022/04/26 08:32:48;;;;;;;12.32;7.78;;;12.60;64.20;;;;;;5077512;28;20037;-63
2022/04/26 08:35:18;;;;;;;11.73;7.93;;;12.70;64.40;;;;;;5077333;28;20095;-62
2022/04/26 08:37:44;;;;;;;11.75;7.45;;;12.80;65.30;;;;;;5077150;28;20035;-63
2022/04/26 08:40:10;;;;;;;11.82;7.80;;;12.80;65.60;;;;;;5076958;28;20017;-63
2022/04/26 08:42:42;;;;;;;9.82;7.20;;;13.00;65.60;;;;;;5077263;28;20044;-63
2022/04/26 08:45:10;;;;;;;12.85;7.75;;;13.10;64.50;;;;;;5076937;28;20046;-63
2022/04/26 08:53:11;;;;;;;11.30;6.50;;;13.40;64.10;;;;;;5077049;28;20035;-63
2022/04/26 08:55:45;;;;;;;10.80;7.45;;;13.50;64.10;;;;;;5076706;28;20417;-62
2022/04/26 08:58:13;;;;;;;9.55;6.70;;;13.60;64.60;;;;;;5077076;28;20036;-63
2022/04/26 09:00:41;;;;;;;10.68;7.10;;;13.80;64.30;;;;;;5076932;28;20078;-63
2022/04/26 09:03:08;;;;;;;9.40;6.78;;;13.90;63.90;;;;;;5076938;28;20033;-63
2022/04/26 09:05:35;;;;;;;11.85;6.70;;;14.10;62.70;;;;;;5076811;28;20477;-63
2022/04/26 09:08:20;;;;;;;10.32;6.75;;;14.20;61.90;;;;;;5076560;28;20031;-63
2022/04/26 09:10:47;;;;;;;9.13;6.60;;;14.30;61.80;;;;;;5076653;28;20401;-63
2022/04/26 09:13:15;;;;;;;11.85;6.97;;;14.50;62.70;;;;;;5077074;28;20440;-63
2022/04/26 09:15:48;;;;;;;11.90;7.38;;;14.60;61.20;;;;;;5076708;28;20074;-63
2022/04/26 09:18:21;;;;;;;9.88;6.43;;;14.70;61.00;;;;;;5075767;28;20029;-63
2022/04/26 09:20:48;;;;;;;11.27;6.68;;;14.90;61.10;;;;;;5076684;28;20024;-63
2022/04/26 09:23:28;;;;;;;10.32;7.53;;;15.10;61.00;;;;;;5076585;28;20024;-63
2022/04/26 09:26:12;;;;;;;11.13;7.35;;;15.30;61.00;;;;;;5076969;28;20125;-63
2022/04/26 09:28:40;;;;;;;11.25;6.65;;;15.60;60.60;;;;;;5076877;28;20035;-63
2022/04/26 09:31:18;;;;;;;12.35;6.90;;;15.80;60.90;;;;;;5076883;28;20012;-63
2022/04/26 09:33:47;;;;;;;11.98;7.45;;;16.20;59.70;;;;;;5076696;28;20043;-63
2022/04/26 09:36:14;;;;;;;10.55;7.28;;;16.50;58.70;;;;;;5076541;28;20035;-63
2022/04/26 09:38:51;;;;;;;10.20;6.63;;;16.90;55.30;;;;;;5079917;28;20028;-63
2022/04/26 09:41:17;;;;;;;10.68;6.18;;;17.10;56.10;;;;;;5080265;28;20050;-63
2022/04/26 09:43:43;;;;;;;9.32;6.07;;;17.50;54.10;;;;;;5079894;28;20035;-63
2022/04/26 09:46:09;;;;;;;9.65;6.28;;;17.90;56.80;;;;;;5080056;28;20078;-63
2022/04/26 09:48:37;;;;;;;9.60;6.15;;;18.30;53.90;;;;;;5079995;28;20020;-63
2022/04/26 09:51:05;;;;;;;10.27;6.45;;;18.60;54.00;;;;;;5079911;28;20097;-63
2022/04/26 09:53:32;;;;;;;9.63;6.50;;;19.00;53.70;;;;;;5079784;28;20115;-63
2022/04/26 09:56:03;;;;;;;9.82;6.60;;;19.40;51.30;;;;;;5079611;28;20056;-63
2022/04/26 09:58:30;;;;;;;9.63;7.20;;;19.80;56.60;;;;;;5079812;28;20028;-62
2022/04/26 10:01:00;;;;;;;8.82;6.53;;;20.20;49.70;;;;;;5079974;28;20070;-62
2022/04/26 10:03:35;;;;;;;8.40;6.22;;;20.50;51.00;;;;;;5079365;28;20416;-62
2022/04/26 10:06:02;;;;;;;11.00;6.15;;;20.80;50.00;;;;;;5079291;28;20111;-62
2022/04/26 10:08:30;;;;;;;9.10;6.47;;;21.10;50.40;;;;;;5079525;28;20025;-62
2022/04/26 10:10:57;;;;;;;9.23;5.55;;;21.40;47.10;;;;;;5079726;28;20037;-61
2022/04/26 10:13:38;;;;;;;9.27;6.25;;;21.70;51.10;;;;;;5079622;28;20025;-61
2022/04/26 10:16:10;;;;;;;8.43;6.10;;;22.00;46.50;;;;;;5079420;28;20496;-61
2022/04/26 10:18:44;;;;;;;9.48;5.88;;;22.20;43.50;;;;;;5079526;28;20103;-62
2022/04/26 10:21:31;;;;;;;10.77;5.93;;;22.50;47.90;;;;;;5079158;28;20111;-61
2022/04/26 10:24:01;;;;;;;7.75;5.40;;;22.80;47.00;;;;;;5079171;28;20357;-62
2022/04/26 10:26:28;;;;;;;7.70;4.68;;;23.20;45.90;;;;;;5079399;28;20028;-61
2022/04/26 10:28:58;;;;;;;7.38;5.07;;;23.50;49.50;;;;;;5079243;28;20074;-62
2022/04/26 10:31:35;;;;;;;7.93;5.50;;;23.90;47.90;;;;;;5079313;28;20069;-63
2022/04/26 10:34:15;;;;;;;8.40;5.35;;;24.30;42.20;;;;;;5079136;28;20052;-66
2022/04/26 10:36:41;;;;;;;8.52;5.75;;;24.40;43.50;;;;;;5079216;28;20032;-62
2022/04/26 10:39:11;;;;;;;8.05;5.13;;;24.80;42.80;;;;;;5078508;28;20373;-63
2022/04/26 10:41:45;;;;;;;8.18;4.93;;;25.00;39.70;;;;;;5079117;28;20031;-63
2022/04/26 10:44:13;;;;;;;8.15;4.55;;;25.20;43.40;;;;;;5078930;28;20033;-63
2022/04/26 10:46:56;;;;;;;6.55;4.60;;;25.30;44.00;;;;;;5078853;28;20021;-63
2022/04/26 10:49:25;;;;;;;7.25;4.85;;;25.70;42.40;;;;;;5078795;28;20028;-63
2022/04/26 10:51:57;;;;;;;6.70;4.30;;;25.80;40.30;;;;;;5078913;28;20035;-63
2022/04/26 10:54:45;;;;;;;6.70;4.07;;;26.00;38.00;;;;;;5078892;28;20025;-64
2022/04/26 10:57:11;;;;;;;8.25;4.35;;;26.40;38.60;;;;;;5078843;28;20062;-63
2022/04/26 10:59:41;;;;;;;7.55;4.75;;;26.80;38.10;;;;;;5078733;28;20031;-63
2022/04/26 11:02:12;;;;;;;7.60;4.57;;;26.90;39.90;;;;;;5078657;28;20365;-63
2022/04/26 11:04:38;;;;;;;7.88;4.47;;;27.00;35.00;;;;;;5078811;28;20055;-63
2022/04/26 11:07:11;;;;;;;6.85;4.13;;;27.30;38.20;;;;;;5078598;28;20052;-63
2022/04/26 11:09:43;;;;;;;5.72;3.83;;;27.60;37.10;;;;;;5078341;28;20074;-63
2022/04/26 11:12:08;;;;;;;7.78;3.97;;;27.70;37.20;;;;;;5078425;28;20016;-62
2022/04/26 11:14:40;;;;;;;6.82;4.65;;;27.80;38.80;;;;;;5078426;28;20035;-62
2022/04/26 11:17:06;;;;;;;6.43;4.07;;;28.20;38.20;;;;;;5078510;28;20437;-62
2022/04/26 11:19:36;;;;;;;5.32;3.88;;;28.30;36.00;;;;;;5078625;28;20050;-62
2022/04/26 11:22:13;;;;;;;6.20;3.53;;;28.50;34.20;;;;;;5078134;28;20032;-62
2022/04/26 11:30:15;;;;;;;5.90;3.90;;;28.70;34.60;;;;;;5077821;28;20051;-62
2022/04/26 11:32:44;;;;;;;6.45;4.30;;;28.70;33.30;;;;;;5078130;28;20035;-62
2022/04/26 11:35:13;;;;;;;5.15;3.60;;;28.60;31.90;;;;;;5077789;28;20020;-62
2022/04/26 11:37:49;;;;;;;5.68;3.53;;;28.50;33.60;;;;;;5077713;28;20019;-62
2022/04/26 11:40:26;;;;;;;6.65;3.63;;;28.80;35.60;;;;;;5077609;28;20032;-62
2022/04/26 11:42:54;;;;;;;6.45;3.88;;;28.90;33.00;;;;;;5077914;28;20021;-62
2022/04/26 11:45:21;;;;;;;8.70;3.97;;;28.80;31.70;;;;;;5077947;28;20028;-62
2022/04/26 11:47:48;;;;;;;6.30;4.18;;;29.00;34.00;;;;;;5077598;28;20040;-62
2022/04/26 11:50:22;;;;;;;6.32;4.13;;;29.10;32.90;;;;;;5077739;28;20070;-62
2022/04/26 11:52:50;;;;;;;7.80;4.30;;;29.30;31.00;;;;;;5077948;28;20028;-61
2022/04/26 11:55:22;;;;;;;6.15;3.83;;;29.60;33.20;;;;;;5077552;28;20051;-62
2022/04/26 11:57:47;;;;;;;4.95;3.70;;;29.90;33.70;;;;;;5077780;28;20034;-62
2022/04/26 12:00:19;;;;;;;4.65;3.70;;;30.00;34.20;;;;;;5077010;28;20066;-62
2022/04/26 12:02:50;;;;;;;5.60;3.83;;;30.20;33.20;;;;;;5077501;28;20021;-62
2022/04/26 12:05:20;;;;;;;6.28;4.13;;;30.50;33.80;;;;;;5077531;28;20035;-62
2022/04/26 12:07:47;;;;;;;6.53;4.13;;;30.60;33.00;;;;;;5077379;28;20029;-62
2022/04/26 12:10:30;;;;;;;5.28;3.70;;;31.00;32.30;;;;;;5077572;28;20021;-62
2022/04/26 12:12:58;;;;;;;8.45;4.55;;;31.10;33.90;;;;;;5077444;28;20017;-61
2022/04/26 12:15:29;;;;;;;7.25;4.70;;;30.90;31.10;;;;;;5077500;28;20029;-61
2022/04/26 12:18:07;;;;;;;6.55;4.20;;;30.90;29.20;;;;;;5077777;28;20029;-61
2022/04/26 12:20:35;;;;;;;7.78;4.43;;;30.80;31.90;;;;;;5077508;28;20027;-61
2022/04/26 12:23:02;;;;;;;4.97;4.07;;;30.30;31.50;;;;;;5077189;28;20047;-61
2022/04/26 12:25:28;;;;;;;6.75;3.90;;;30.20;29.20;;;;;;5077644;28;20021;-60
2022/04/26 12:28:08;;;;;;;7.85;3.95;;;30.50;31.30;;;;;;5077417;28;20078;-61
2022/04/26 12:30:38;;;;;;;5.95;3.83;;;30.80;30.00;;;;;;5077387;28;20028;-61
2022/04/26 12:33:07;;;;;;;5.95;3.90;;;31.10;29.90;;;;;;5077177;28;20067;-61
2022/04/26 12:35:33;;;;;;;7.78;3.90;;;31.00;29.60;;;;;;5077136;28;20033;-61
2022/04/26 12:38:07;;;;;;;5.65;3.35;;;31.00;29.10;;;;;;5076863;28;20035;-61
2022/04/26 12:40:33;;;;;;;6.75;3.75;;;30.80;30.00;;;;;;5077417;28;20088;-61
2022/04/26 12:42:59;;;;;;;5.30;3.22;;;30.70;28.10;;;;;;5077099;28;20080;-61
2022/04/26 12:45:25;;;;;;;6.05;3.63;;;31.00;28.80;;;;;;5077251;28;20032;-60
2022/04/26 12:50:53;;;;;;;6.30;3.78;;;31.20;27.20;;;;;;5077066;28;20063;-60
2022/04/26 12:53:31;;;;;;;6.70;3.58;;;31.30;28.50;;;;;;5076908;28;20025;-61
2022/04/26 12:56:06;;;;;;;6.25;3.70;;;31.20;27.60;;;;;;5076958;28;20040;-60
2022/04/26 12:58:39;;;;;;;4.25;3.17;;;31.40;28.30;;;;;;5077163;28;20053;-60
2022/04/26 13:01:06;;;;;;;5.97;3.10;;;30.70;25.60;;;;;;5076924;28;20031;-60
2022/04/26 13:03:34;;;;;;;5.55;3.38;;;30.60;27.50;;;;;;5076775;28;20396;-61
2022/04/26 13:06:14;;;;;;;4.88;2.88;;;31.00;28.40;;;;;;5076821;28;20021;-60
2022/04/26 13:08:43;;;;;;;5.57;3.35;;;31.20;28.60;;;;;;5076796;28;20024;-60
2022/04/26 13:11:09;;;;;;;5.63;3.15;;;30.60;28.10;;;;;;5077030;28;20493;-60
2022/04/26 13:13:39;;;;;;;5.28;3.78;;;30.20;27.80;;;;;;5080540;28;20078;-60
2022/04/26 13:16:06;;;;;;;6.35;3.60;;;29.90;28.90;;;;;;5080616;28;20088;-60
2022/04/26 13:18:31;;;;;;;6.85;4.15;;;29.30;27.40;;;;;;5080270;28;20025;-61
2022/04/26 13:20:58;;;;;;;7.50;4.07;;;28.40;27.90;;;;;;5078970;28;20471;-62
2022/04/26 13:23:25;;;;;;;7.22;4.40;;;27.60;29.20;;;;;;5080849;28;20105;-62
2022/04/26 13:25:51;;;;;;;9.27;4.95;;;27.00;29.60;;;;;;5080244;28;20089;-63
2022/04/26 13:28:18;;;;;;;7.28;4.55;;;26.30;30.50;;;;;;5080807;28;20460;-62
2022/04/26 13:30:44;;;;;;;7.05;4.10;;;25.70;31.20;;;;;;5080444;28;20029;-62
2022/04/26 13:33:11;;;;;;;7.38;4.38;;;25.50;29.60;;;;;;5080130;28;20098;-62
2022/04/26 13:35:39;;;;;;;7.30;4.13;;;24.60;31.00;;;;;;5080386;28;20039;-62
2022/04/26 13:38:10;;;;;;;7.60;4.45;;;24.30;34.00;;;;;;5080341;28;20046;-62
2022/04/26 13:40:37;;;;;;;7.13;4.30;;;24.00;35.10;;;;;;5080693;28;20024;-62
2022/04/26 13:43:03;;;;;;;7.78;4.28;;;23.90;31.00;;;;;;5080195;28;20024;-62
2022/04/26 13:45:29;;;;;;;9.05;4.43;;;23.40;31.80;;;;;;5080190;28;20020;-62
2022/04/26 13:47:55;;;;;;;8.18;4.70;;;23.20;32.30;;;;;;5080052;28;20389;-62
2022/04/26 13:50:21;;;;;;;7.40;4.03;;;22.80;33.20;;;;;;5079915;28;20080;-62
2022/04/26 13:52:47;;;;;;;7.50;3.90;;;22.50;33.40;;;;;;5080076;28;20595;-62
2022/04/26 13:55:17;;;;;;;5.78;3.92;;;22.20;34.70;;;;;;5079595;28;20044;-62
2022/04/26 13:57:43;;;;;;;6.10;3.75;;;22.00;35.60;;;;;;5078500;28;20012;-62
2022/04/26 14:00:13;;;;;;;8.20;4.00;;;22.10;34.60;;;;;;5079838;28;20032;-62
2022/04/26 14:02:44;;;;;;;6.63;3.65;;;22.20;35.50;;;;;;5079495;28;20036;-62
2022/04/26 14:05:10;;;;;;;7.43;4.10;;;22.10;32.90;;;;;;5079287;28;20491;-62
2022/04/26 14:07:36;;;;;;;6.97;3.97;;;22.00;33.00;;;;;;5079836;28;20112;-62
2022/04/26 14:10:03;;;;;;;7.85;4.05;;;21.90;35.00;;;;;;5079650;28;20052;-62
2022/04/26 14:12:29;;;;;;;6.03;4.07;;;21.90;33.80;;;;;;5079419;28;20017;-62
2022/04/26 14:23:08;;;;;;;8.23;4.28;;;21.50;36.10;;;;;;5079236;28;20070;-62
2022/04/26 14:25:34;;;;;;;7.70;4.63;;;21.10;37.00;;;;;;5079505;28;20024;-62
2022/04/26 14:27:59;;;;;;;6.07;3.90;;;20.90;37.80;;;;;;5079015;28;20028;-62
2022/04/26 14:30:25;;;;;;;7.25;4.10;;;20.90;36.50;;;;;;5079383;28;20032;-62
2022/04/26 14:32:53;;;;;;;6.88;3.75;;;21.00;36.80;;;;;;5079172;28;20017;-62
2022/04/26 14:35:18;;;;;;;7.05;4.22;;;21.10;37.10;;;;;;5079279;28;20032;-62
2022/04/26 14:37:44;;;;;;;7.95;4.22;;;21.00;37.50;;;;;;5079312;28;20074;-62
2022/04/26 14:40:10;;;;;;;7.18;4.10;;;21.00;37.20;;;;;;5079065;28;20032;-62
2022/04/26 14:42:38;;;;;;;8.30;4.55;;;20.80;36.60;;;;;;5079314;28;20025;-62
2022/04/26 14:45:05;;;;;;;7.00;4.43;;;20.70;36.40;;;;;;5078762;28;20032;-62
2022/04/26 14:47:31;;;;;;;7.30;4.47;;;20.40;37.30;;;;;;5079050;28;20017;-62
2022/04/26 14:49:59;;;;;;;10.55;4.50;;;20.30;38.50;;;;;;5078746;28;20027;-62
2022/04/26 14:52:25;;;;;;;7.30;4.13;;;20.30;40.60;;;;;;5078688;28;20025;-62
2022/04/26 14:54:52;;;;;;;6.38;3.92;;;20.30;40.40;;;;;;5078392;28;20049;-62
2022/04/26 14:57:18;;;;;;;7.07;4.43;;;20.40;39.00;;;;;;5078607;28;20056;-62
2022/04/26 14:59:47;;;;;;;7.70;4.50;;;20.30;38.70;;;;;;5078818;28;20024;-62
2022/04/26 15:02:17;;;;;;;7.68;4.35;;;20.30;39.20;;;;;;5078697;28;20094;-62
2022/04/26 15:04:43;;;;;;;7.10;4.95;;;20.20;39.50;;;;;;5078190;28;20032;-62
2022/04/26 15:07:09;;;;;;;6.85;4.60;;;20.10;39.50;;;;;;5078402;28;20529;-62
2022/04/26 15:09:45;;;;;;;7.38;4.47;;;19.90;38.60;;;;;;5078604;28;20062;-62
2022/04/26 15:17:49;;;;;;;6.97;4.40;;;19.70;39.60;;;;;;5078467;28;20081;-62
2022/04/26 15:20:17;;;;;;;7.32;4.53;;;19.60;39.30;;;;;;5078163;28;20039;-62
2022/04/26 15:22:43;;;;;;;8.40;4.50;;;19.40;39.10;;;;;;5078256;28;20028;-62
2022/04/26 15:25:10;;;;;;;6.75;4.40;;;19.30;39.80;;;;;;5078117;28;20036;-62
2022/04/26 15:27:40;;;;;;;7.20;4.30;;;19.30;39.70;;;;;;5078259;28;20031;-61
2022/04/26 15:30:08;;;;;;;6.82;4.30;;;19.20;41.60;;;;;;5077969;28;20091;-61
2022/04/26 15:32:34;;;;;;;7.53;4.50;;;19.20;40.80;;;;;;5077958;28;20361;-62
2022/04/26 15:35:00;;;;;;;7.45;4.00;;;19.40;39.90;;;;;;5077319;28;20024;-61
2022/04/26 15:37:26;;;;;;;6.10;4.68;;;19.50;39.40;;;;;;5078094;28;20104;-62
2022/04/26 15:39:53;;;;;;;6.65;3.97;;;19.50;39.60;;;;;;5077812;28;20020;-61
2022/04/26 15:42:20;;;;;;;7.90;4.53;;;19.40;39.80;;;;;;5077803;28;20085;-62
2022/04/26 15:44:46;;;;;;;9.45;4.32;;;19.50;40.40;;;;;;5077906;28;20021;-62
2022/04/26 15:47:11;;;;;;;8.82;4.40;;;19.60;39.90;;;;;;5078107;28;20076;-62
2022/04/26 15:49:37;;;;;;;8.80;4.78;;;19.40;41.10;;;;;;5077650;28;20024;-62
2022/04/26 15:52:03;;;;;;;6.82;4.75;;;19.50;40.10;;;;;;5077825;28;20326;-61
2022/04/26 15:54:29;;;;;;;8.23;4.80;;;19.60;40.00;;;;;;5077925;28;20062;-62
2022/04/26 15:56:55;;;;;;;7.18;4.40;;;19.50;40.10;;;;;;5077348;28;20077;-61
2022/04/26 15:59:21;;;;;;;7.95;4.63;;;19.30;40.90;;;;;;5077549;28;20050;-62
2022/04/26 16:01:47;;;;;;;10.52;4.80;;;19.10;40.60;;;;;;5077753;28;20028;-61
2022/04/26 16:04:13;;;;;;;7.25;4.70;;;19.10;41.70;;;;;;5077398;28;20025;-61
2022/04/26 16:06:41;;;;;;;9.95;5.00;;;19.10;41.30;;;;;;5077512;28;20021;-61
2022/04/26 16:22:50;;;;;;;6.78;4.50;;;19.40;40.30;;;;;;5076378;28;20117;-62
2022/04/26 16:25:16;;;;;;;7.75;4.43;;;19.40;40.40;;;;;;5077024;28;20036;-61
2022/04/26 16:27:42;;;;;;;7.63;4.72;;;19.30;41.00;;;;;;5077710;28;20400;-62
2022/04/26 16:30:10;;;;;;;7.05;4.63;;;19.20;41.00;;;;;;5077439;28;20096;-62
2022/04/26 16:32:36;;;;;;;6.60;4.30;;;19.10;41.10;;;;;;5077597;28;20465;-62
2022/04/26 16:35:01;;;;;;;9.27;5.13;;;19.10;41.40;;;;;;5077000;28;20025;-62
2022/04/26 16:37:27;;;;;;;6.65;4.43;;;19.00;39.90;;;;;;5077348;28;20107;-62
2022/04/26 16:39:53;;;;;;;8.90;4.40;;;19.00;40.10;;;;;;5077223;28;20358;-62
2022/04/26 16:42:20;;;;;;;7.43;4.65;;;19.00;41.00;;;;;;5077015;28;20043;-62
2022/04/26 16:44:46;;;;;;;7.22;4.35;;;18.80;40.80;;;;;;5076767;28;20047;-62
2022/04/26 16:47:12;;;;;;;7.78;4.25;;;18.80;41.60;;;;;;5080514;28;20029;-62
2022/04/26 16:49:39;;;;;;;7.80;4.95;;;18.80;41.80;;;;;;5081323;28;20023;-62
2022/04/26 16:52:05;;;;;;;9.60;5.32;;;18.80;42.00;;;;;;5081037;28;20028;-62
2022/04/26 16:54:31;;;;;;;9.43;4.72;;;18.70;42.70;;;;;;5080852;28;20476;-62
2022/04/26 16:56:57;;;;;;;8.23;4.82;;;18.70;41.30;;;;;;5081195;28;20369;-62
2022/04/26 16:59:24;;;;;;;8.95;4.70;;;18.70;41.80;;;;;;5080960;28;20020;-62
2022/04/26 17:01:51;;;;;;;6.38;4.57;;;18.80;41.70;;;;;;5080757;28;20033;-62
2022/04/26 17:04:17;;;;;;;8.10;4.85;;;18.80;41.20;;;;;;5081022;28;20074;-62
2022/04/26 17:06:44;;;;;;;6.88;4.28;;;18.70;41.20;;;;;;5079570;28;20020;-63
2022/04/26 17:09:10;;;;;;;7.63;4.38;;;18.70;40.80;;;;;;5080983;28;20032;-62
2022/04/26 17:11:42;;;;;;;6.13;4.35;;;18.70;41.10;;;;;;5080805;28;20017;-62
2022/04/26 17:14:12;;;;;;;7.43;4.35;;;18.70;41.80;;;;;;5080881;28;20103;-63